ADDS METAR Data INFO
IDs: Format: Raw Decoded Include TAF

Data at: 2051 UTC 26 May 2017

KDWX 262035Z AUTO 25011KT 10SM 17/00 A2987 RMK AO2 LTG DSNT W T01661001
KDWX 262015Z AUTO 28016G20KT 10SM 18/M01 A2984 RMK AO2 LTG DSNT N AND NE T01841006
KDWX 261955Z AUTO 22017G29KT 10SM 19/M02 A2983 RMK AO2 LTG DSNT N T01941018
KDWX 261935Z AUTO 24016G25KT 10SM 20/00 A2983 RMK AO2 LTG DSNT N AND NW T01951004
KDWX 261915Z AUTO 23017G23KT 10SM 21/00 A2983 RMK AO2 LTG DSNT NE AND E T02111005
KDWX 261855Z AUTO 21020G25KT 10SM 20/00 A2984 RMK AO2 LTG DSNT E AND SE T02030004
KDWX 261815Z AUTO 23016G23KT 10SM TS 18/02 A2987 RMK AO2 LTG DSNT NE AND NW T01780024
KDWX 261755Z AUTO 22013G22KT 10SM 17/04 A2987 RMK AO2 T01710037 10247 21011
KDWX 261735Z AUTO 23008G14KT 10SM 17/03 A2988 RMK AO2 T01690034
KDWX 261715Z AUTO 22009KT 10SM 16/04 A2989 RMK AO2 T01590035
KDWX 261655Z AUTO 00000KT 10SM 15/04 A2989 RMK AO2 LTG DSNT N T01510035
KDWX 261635Z AUTO 00000KT 10SM 14/03 A2989 RMK AO2 T01410032
KDWX 261615Z AUTO 00000KT 10SM 14/03 A2990 RMK AO2 T01420034
KDWX 261555Z AUTO 06007KT 10SM 14/05 A2990 RMK AO2 T01390047
KDWX 261535Z AUTO 11005KT 10SM 13/04 A2990 RMK AO2 T01270044
KDWX 261515Z AUTO 10007KT 10SM 12/05 A2991 RMK AO2 T01230047
KDWX 261455Z AUTO 10008KT 10SM 11/05 A2991 RMK AO2 T01110048
KDWX 261435Z AUTO 08005KT 10SM 10/05 A2992 RMK AO2 T01040051
KDWX 261415Z AUTO 09005KT 10SM 10/05 A2992 RMK AO2 T00970047
KDWX 261355Z AUTO 01004KT 10SM 08/04 A2992 RMK AO2 T00810038
KDWX 261335Z AUTO 06008KT 10SM 07/03 A2992 RMK AO2 T00660030
KDWX 261315Z AUTO 00000KT 10SM -RA 07/02 A2993 RMK AO2 T00650023
KDWX 261300Z AUTO 13006KT 10SM 07/02 A2995 RMK AO2 T00660022
KDWX 261235Z AUTO 06005KT 10SM 05/02 A2993 RMK AO2 T00530024
KDWX 261215Z AUTO 07005KT 10SM 05/02 A2992 RMK AO2 T00450016
KDWX 261155Z AUTO 06009KT 10SM 05/01 A2993 RMK AO2 T00450011 10247 21011
KDWX 261135Z AUTO 08005KT 10SM 04/01 A2993 RMK AO2 T00410011
KDWX 261115Z AUTO 08005KT 10SM 04/01 A2993 RMK AO2 T00360012
KDWX 261055Z AUTO 05004KT 10SM 04/01 A2995 RMK AO2 T00370012
KDWX 261035Z AUTO 04005KT 10SM 03/01 A2994 RMK AO2 T00320011
KDWX 261015Z AUTO 07003KT 10SM 03/01 A2995 RMK AO2 T00320013
KDWX 260955Z AUTO 06004KT 10SM 04/01 A2996 RMK AO2 T00360013
KDWX 260935Z AUTO 04004KT 10SM 04/01 A2996 RMK AO2 T00380013
KDWX 260915Z AUTO 07006KT 10SM 03/01 A2995 RMK AO2 T00340012
KDWX 260855Z AUTO 09003KT 10SM 04/02 A2995 RMK AO2 T00370015
KDWX 260835Z AUTO 05004KT 10SM 04/02 A2995 RMK AO2 T00370015
KDWX 260815Z AUTO 04003KT 10SM 04/02 A2995 RMK AO2 T00380015
KDWX 260755Z AUTO 05005KT 10SM 04/02 A2995 RMK AO2 T00420017
KDWX 260735Z AUTO 09003KT 10SM 04/02 A2995 RMK AO2 T00390017
KDWX 260715Z AUTO 06004KT 10SM 04/02 A2995 RMK AO2 T00380016
KDWX 260655Z AUTO 00000KT 10SM 04/02 A2995 RMK AO2 T00440018 402471011
KDWX 260635Z AUTO 00000KT 10SM 05/02 A2995 RMK AO2 T00470020
KDWX 260615Z AUTO 04003KT 10SM 06/02 A2993 RMK AO2 T00560022
KDWX 260555Z AUTO 04006KT 10SM 06/03 A2993 RMK AO2 LTG DSNT SE T00580027 10247 21011
KDWX 260535Z AUTO 03007KT 10SM 07/03 A2993 RMK AO2 T00660029
KDWX 260515Z AUTO 03007KT 10SM 07/03 A2993 RMK AO2 T00710032
KDWX 260455Z AUTO 04005KT 10SM 08/04 A2993 RMK AO2 T00800035
KDWX 260435Z AUTO 00000KT 10SM 09/04 A2992 RMK AO2 T00860035
KDWX 260415Z AUTO 02003KT 10SM 08/04 A2992 RMK AO2 T00820041
KDWX 260355Z AUTO 00000KT 10SM 09/04 A2991 RMK AO2 LTG DSNT SE T00900041
KDWX 260335Z AUTO 04005KT 10SM 09/05 A2990 RMK AO2 T00880050
KDWX 260315Z AUTO 07004KT 10SM 09/05 A2989 RMK AO2 LTG DSNT S T00940054
KDWX 260255Z AUTO 00000KT 10SM 10/06 A2989 RMK AO2 T00970056
KDWX 260235Z AUTO 09004KT 10SM 10/06 A2987 RMK AO2 LTG DSNT S T01010055
KDWX 260215Z AUTO 14003KT 10SM VCTS 10/05 A2986 RMK AO2 T01030052
KDWX 260155Z AUTO 06003KT 10SM 11/03 A2985 RMK AO2 T01110029
KDWX 260135Z AUTO 30005KT 7SM RA 12/05 A2986 RMK AO2 LTG DSNT SE T01180046
KDWX 260115Z AUTO 00000KT 10SM -RA 13/05 A2984 RMK AO2 T01250048
KDWX 260055Z AUTO 13003KT 10SM -RA 13/04 A2983 RMK AO2 LTG DSNT SE T01290039
KDWX 260035Z AUTO 16003KT 10SM 13/03 A2983 RMK AO2 T01300033
KDWX 260015Z AUTO 12003KT 10SM 13/03 A2981 RMK AO2 T01290034
KDWX 252355Z AUTO 12005KT 10SM 13/03 A2981 RMK AO2 T01340031 10247 21011
KDWX 252335Z AUTO 00000KT 10SM 14/02 A2979 RMK AO2 LTG DSNT SE T01350021
KDWX 252315Z AUTO 00000KT 10SM 14/03 A2981 RMK AO2 T01350027
KDWX 252255Z AUTO 29003KT 10SM 13/03 A2979 RMK AO2 LTG DSNT E T01340027
KDWX 252235Z AUTO 34003KT 10SM 13/04 A2980 RMK AO2 LTG DSNT SE T01330040
KDWX 252215Z AUTO 32008G14KT 10SM 13/05 A2979 RMK AO2 T01310046
KDWX 252155Z AUTO 10SM 13/04 A2979 RMK AO2 LTG DSNT SE T01270043
KDWX 252135Z AUTO 34009KT 10SM 13/06 A2979 RMK AO2 LTG DSNT E AND S T01280059
KDWX 252115Z AUTO 33011KT 10SM 13/06 A2979 RMK AO2 LTG DSNT E T01270062
KDWX 252055Z AUTO 32011KT 10SM 12/07 A2978 RMK AO2 LTG DSNT E T01210065
KDWX 252035Z AUTO 33013G17KT 10SM 10/07 A2979 RMK AO2 LTG DSNT NE T01030068
KDWX 252015Z AUTO 31022G30KT 7SM -RA 11/05 A2981 RMK AO2 LTG DSNT SE AND NW T01140052
KDWX 251955Z AUTO 21003KT 10SM 16/05 A2977 RMK AO2 LTG DSNT SE W AND NW T01550048
KDWX 251935Z AUTO 32003KT 10SM 14/05 A2977 RMK AO2 T01380045
KDWX 251915Z AUTO 34004KT 10SM 13/05 A2976 RMK AO2 LTG DSNT SE AND S T01250048
KDWX 251855Z AUTO 00000KT 10SM 11/05 A2978 RMK AO2 LTG DSNT S T01070046
KDWX 251835Z AUTO 02007KT 10SM -RA 10/04 A2978 RMK AO2 LTG DSNT S T01000044
KDWX 251815Z AUTO 03007KT 10SM -RA 11/04 A2979 RMK AO2 T01070041
KDWX 251755Z AUTO 04003KT 10SM 11/03 A2979 RMK AO2 LTG DSNT E AND S T01130034 10247 21011
KDWX 251735Z AUTO 07003KT 10SM 11/04 A2979 RMK AO2 T01130040
KDWX 251715Z AUTO 10007KT 10SM 10/05 A2979 RMK AO2 T00970045
KDWX 251655Z AUTO 12004KT 10SM DZ 09/03 A2980 RMK AO2 T00850034
KDWX 251635Z AUTO 11005KT 10SM 09/03 A2979 RMK AO2 T00860032
KDWX 251615Z AUTO 12004KT 10SM 09/03 A2980 RMK AO2 T00880029
KDWX 251555Z AUTO 08003KT 10SM 09/02 A2980 RMK AO2 T00890022
KDWX 251535Z AUTO 09004KT 10SM 09/02 A2980 RMK AO2 LTG DSNT SE T00850020
KDWX 251515Z AUTO 00000KT 10SM -DZ 08/02 A2981 RMK AO2 T00830021
KDWX 251455Z AUTO 00000KT 10SM 08/02 A2981 RMK AO2 T00800023
KDWX 251435Z AUTO 33007KT 10SM -DZ 08/03 A2981 RMK AO2 T00790027
KDWX 251415Z AUTO 31003KT 10SM 08/03 A2982 RMK AO2 T00790028
KDWX 251355Z AUTO 00000KT 10SM 08/03 A2981 RMK AO2 T00760027
KDWX 251335Z AUTO 34003KT 10SM 08/03 A2982 RMK AO2 T00790027
KDWX 251315Z AUTO 31006KT 10SM 08/03 A2980 RMK AO2 T00780031
KDWX 251255Z AUTO 34014G19KT 10SM 08/03 A2977 RMK AO2 T00800031
KDWX 251235Z AUTO 33012G17KT 10SM 08/03 A2976 RMK AO2 T00820033
KDWX 251215Z AUTO 32020G28KT 10SM TS 10/06 A2973 RMK AO2 T00970056
KDWX 251155Z AUTO 29013G20KT 10SM 10/06 A2970 RMK AO2 T00990061 10247 21011
KDWX 251135Z AUTO 00000KT 10SM 10/06 A2967 RMK AO2 T01000057
KDWX 251115Z AUTO 00000KT 10SM 10/06 A2967 RMK AO2 T00960062
KDWX 251055Z AUTO 00000KT 10SM 10/07 A2968 RMK AO2 T00960066
KDWX 251035Z AUTO 04008KT 10SM 10/07 A2967 RMK AO2 T00950072
KDWX 251015Z AUTO 09008KT 10SM 10/08 A2967 RMK AO2 T00960075
KDWX 250955Z AUTO 09011G17KT 10SM 10/08 A2969 RMK AO2 T00970077
KDWX 250935Z AUTO 08009KT 10SM 10/08 A2969 RMK AO2 T01000079
KDWX 250915Z AUTO 11008KT 10SM 10/08 A2969 RMK AO2 T01000081
KDWX 250855Z AUTO 11015G18KT 10SM -DZ 10/09 A2969 RMK AO2 T01000085


Page loaded:  20:51 UTC  |   01:51 PM Pacific  |   02:51 PM Mountain  |   03:51 PM Central  |   04:51 PM Eastern

 

ADVISORIES

FORECASTS

FORECASTS

OBSERVATIONS

USER TOOLS

ABOUT US